Errachidia, Morocco
Current Conditions -  °F | °C
As of 4:00 AM on Saturday 25 Oct 2014 (Local Time) from GMFK Reporting Station
Clear Clear  
Wind Chill: 61°   Ceiling: Unl
Heat Index: 61°   Visibility: 6mi
Dew Point: 37°   Wind: 6mph
Humidity: 42%   Direction: 190°S
Pressure: 30.15"   Gusts: NA
Location:  31.94°N, 4.45°W
Report Text: GMFK 250300Z 19005KT CAVOK 16/03 Q1021 NOSIG
Loading
Personal Weather Stations






























Interactive Weather Map
Tropical Storm Tracking
New forecast layout! Learn more

10-Day Weather Forecast

Advertisements
Track Severe Weather on mobile